THY8KC LGAV-EDDS
Flight info
| Callsign | THY8KC |
|---|---|
| Flight time | N/A |
| Altitude | 38000 |
| Route | KOR UL53 IXONI DCT VARDI DCT DIMIS DCT VRANA DCT NIVES DCT GORPA DCT MORED DCT TITIG L173 MAH/N0391F240 L173 DODIL T127 TEKSI TEKSI1W |
| Aircraft | B77W/H-SDE1E2E3FGHIJ2J3J4J5M1RWXY/LB1D1 |
Departure
| Time | N/A |
|---|---|
| Airport | Athens Eleftherios Venizelos International Airport (LGAV) |
Arrival
| Time | 2026-05-03 20:30 |
|---|---|
| Airport | Stuttgart Airport (EDDS) |
| Time | Latitude | Longitude | Altitude | Speed | Heading |
|---|---|---|---|---|---|
| 2026-05-03 20:15 | 48.45066 | 10.78994 | 16951 ft | 324 kts | 294° |
| 2026-05-03 20:15 | 48.46084 | 10.75975 | 16719 ft | 323 kts | 294° |
| 2026-05-03 20:15 | 48.47100 | 10.72961 | 16487 ft | 322 kts | 294° |
| 2026-05-03 20:15 | 48.48111 | 10.69956 | 16261 ft | 321 kts | 294° |
| 2026-05-03 20:16 | 48.49119 | 10.66958 | 16040 ft | 320 kts | 294° |
| 2026-05-03 20:16 | 48.50126 | 10.63962 | 15803 ft | 320 kts | 293° |
| 2026-05-03 20:16 | 48.51130 | 10.60969 | 15580 ft | 319 kts | 293° |
| 2026-05-03 20:16 | 48.52131 | 10.57981 | 15373 ft | 319 kts | 293° |
| 2026-05-03 20:17 | 48.53130 | 10.54996 | 15133 ft | 319 kts | 293° |
| 2026-05-03 20:17 | 48.54128 | 10.52012 | 14914 ft | 318 kts | 293° |
| 2026-05-03 20:17 | 48.55124 | 10.49030 | 14690 ft | 318 kts | 293° |
| 2026-05-03 20:17 | 48.56117 | 10.46051 | 14460 ft | 318 kts | 292° |
| 2026-05-03 20:18 | 48.57112 | 10.43065 | 14248 ft | 318 kts | 294° |
| 2026-05-03 20:18 | 48.58107 | 10.40078 | 14025 ft | 318 kts | 294° |
| 2026-05-03 20:18 | 48.59100 | 10.37088 | 13780 ft | 318 kts | 293° |
| 2026-05-03 20:18 | 48.60092 | 10.34102 | 13535 ft | 318 kts | 293° |
| 2026-05-03 20:19 | 48.61083 | 10.31113 | 13276 ft | 317 kts | 293° |
| 2026-05-03 20:19 | 48.62066 | 10.28142 | 13057 ft | 316 kts | 293° |
| 2026-05-03 20:19 | 48.63049 | 10.25172 | 12833 ft | 315 kts | 293° |
| 2026-05-03 20:19 | 48.64025 | 10.22220 | 12606 ft | 313 kts | 292° |
| 2026-05-03 20:20 | 48.64668 | 10.20270 | 12461 ft | 312 kts | 292° |
| 2026-05-03 20:20 | 48.65960 | 10.16355 | 12159 ft | 310 kts | 292° |
| 2026-05-03 20:20 | 48.66919 | 10.13443 | 11926 ft | 308 kts | 292° |
| 2026-05-03 20:20 | 48.67872 | 10.10545 | 11713 ft | 307 kts | 292° |
| 2026-05-03 20:21 | 48.68500 | 10.08634 | 11567 ft | 306 kts | 292° |
| 2026-05-03 20:21 | 48.69330 | 10.05721 | 11338 ft | 297 kts | 282° |
| 2026-05-03 20:21 | 48.69765 | 10.02703 | 11157 ft | 293 kts | 275° |
| 2026-05-03 20:21 | 48.70082 | 9.99661 | 10941 ft | 292 kts | 274° |
| 2026-05-03 20:22 | 48.70390 | 9.96627 | 10732 ft | 292 kts | 275° |
| 2026-05-03 20:22 | 48.70715 | 9.93556 | 10259 ft | 300 kts | 275° |
| 2026-05-03 20:22 | 48.71064 | 9.90369 | 9504 ft | 313 kts | 276° |
| 2026-05-03 20:22 | 48.71437 | 9.87096 | 8954 ft | 314 kts | 277° |
| 2026-05-03 20:23 | 48.71811 | 9.83898 | 8433 ft | 303 kts | 277° |
| 2026-05-03 20:23 | 48.72174 | 9.80803 | 7939 ft | 294 kts | 277° |
| 2026-05-03 20:23 | 48.72526 | 9.77797 | 7407 ft | 286 kts | 277° |
| 2026-05-03 20:23 | 48.72868 | 9.74869 | 6922 ft | 279 kts | 277° |
| 2026-05-03 20:24 | 48.73202 | 9.72003 | 6430 ft | 274 kts | 278° |
| 2026-05-03 20:24 | 48.73534 | 9.69183 | 5930 ft | 270 kts | 278° |
| 2026-05-03 20:24 | 48.73856 | 9.66409 | 5422 ft | 266 kts | 279° |
| 2026-05-03 20:24 | 48.74177 | 9.63665 | 5127 ft | 263 kts | 280° |
| 2026-05-03 20:25 | 48.74501 | 9.60892 | 4958 ft | 272 kts | 279° |
| 2026-05-03 20:25 | 48.74828 | 9.58090 | 4868 ft | 267 kts | 279° |
| 2026-05-03 20:25 | 48.75011 | 9.55362 | 4861 ft | 258 kts | 265° |
| 2026-05-03 20:25 | 48.74706 | 9.52659 | 4872 ft | 263 kts | 257° |
| 2026-05-03 20:26 | 48.74245 | 9.49934 | 4565 ft | 271 kts | 254° |
| 2026-05-03 20:26 | 48.73719 | 9.47186 | 4206 ft | 270 kts | 254° |
| 2026-05-03 20:26 | 48.73209 | 9.44526 | 3844 ft | 257 kts | 254° |
| 2026-05-03 20:26 | 48.72727 | 9.41974 | 3497 ft | 246 kts | 255° |
| 2026-05-03 20:27 | 48.72271 | 9.39559 | 3184 ft | 234 kts | 254° |
| 2026-05-03 20:27 | 48.71833 | 9.37242 | 2888 ft | 220 kts | 254° |
| 2026-05-03 20:27 | 48.71435 | 9.35139 | 2617 ft | 195 kts | 255° |
| 2026-05-03 20:27 | 48.71076 | 9.33236 | 2412 ft | 182 kts | 255° |
| 2026-05-03 20:28 | 48.70743 | 9.31477 | 2157 ft | 165 kts | 255° |
| 2026-05-03 20:28 | 48.70449 | 9.29918 | 1943 ft | 143 kts | 255° |
| 2026-05-03 20:28 | 48.70181 | 9.28502 | 1775 ft | 140 kts | 256° |
| 2026-05-03 20:28 | 48.69909 | 9.27064 | 1584 ft | 143 kts | 255° |
| 2026-05-03 20:29 | 48.69634 | 9.25616 | 1382 ft | 143 kts | 255° |
| 2026-05-03 20:29 | 48.69362 | 9.24177 | 1229 ft | 139 kts | 255° |
| 2026-05-03 20:29 | 48.69121 | 9.22900 | 1224 ft | 111 kts | 254° |
| 2026-05-03 20:29 | 48.68943 | 9.21958 | 1252 ft | 75 kts | 254° |
| 2026-05-03 20:30 | 48.68834 | 9.21380 | 1266 ft | 33 kts | 254° |
| 2026-05-03 20:30 | 48.68822 | 9.21104 | 1272 ft | 23 kts | 276° |
| 2026-05-03 20:30 | 48.68836 | 9.20979 | 1271 ft | 4 kts | 281° |
| 2026-05-03 20:30 | 48.68839 | 9.20961 | 1273 ft | 0 kts | 282° |
| 2026-05-03 20:31 | 48.68841 | 9.20943 | 1274 ft | 8 kts | 283° |
| 2026-05-03 20:31 | 48.68869 | 9.20773 | 1278 ft | 12 kts | 284° |
| 2026-05-03 20:31 | 48.68936 | 9.20646 | 1287 ft | 12 kts | 323° |
| 2026-05-03 20:31 | 48.69008 | 9.20554 | 1288 ft | 19 kts | 316° |
| 2026-05-03 20:32 | 48.69054 | 9.20407 | 1295 ft | 14 kts | 261° |
| 2026-05-03 20:32 | 48.69031 | 9.20277 | 1300 ft | 13 kts | 255° |
| 2026-05-03 20:32 | 48.69006 | 9.20135 | 1305 ft | 15 kts | 255° |
| 2026-05-03 20:32 | 48.68969 | 9.20003 | 1307 ft | 14 kts | 241° |
| 2026-05-03 20:33 | 48.68926 | 9.19892 | 1309 ft | 13 kts | 239° |
| 2026-05-03 20:33 | 48.68893 | 9.19816 | 1309 ft | 8 kts | 238° |
| 2026-05-03 20:33 | 48.68886 | 9.19765 | 1311 ft | 4 kts | 299° |
| 2026-05-03 20:33 | 48.68915 | 9.19737 | 1314 ft | 5 kts | 333° |
| 2026-05-03 20:34 | 48.68939 | 9.19722 | 1316 ft | 0 kts | 340° |
| 2026-05-03 20:34 | 48.68944 | 9.19719 | 1316 ft | 1 kts | 341° |